sensor_id;sensor_type;location;lat;lon;timestamp;pressure;altitude;pressure_sealevel;temperature;humidity
12594;BME280;6362;50.208;9.182;2022-08-25T00:01:58;99997.59;;;22.21;71.56
12594;BME280;6362;50.208;9.182;2022-08-25T00:04:25;99997.00;;;22.13;72.21
12594;BME280;6362;50.208;9.182;2022-08-25T00:06:51;100004.78;;;22.13;72.52
12594;BME280;6362;50.208;9.182;2022-08-25T00:09:22;99996.19;;;22.11;72.45
12594;BME280;6362;50.208;9.182;2022-08-25T00:11:48;99997.13;;;22.10;72.04
12594;BME280;6362;50.208;9.182;2022-08-25T00:14:18;99994.53;;;22.10;73.79
12594;BME280;6362;50.208;9.182;2022-08-25T00:16:44;100010.22;;;22.07;73.75
12594;BME280;6362;50.208;9.182;2022-08-25T00:19:14;99998.88;;;22.09;74.65
12594;BME280;6362;50.208;9.182;2022-08-25T00:21:40;100011.22;;;22.02;74.92
12594;BME280;6362;50.208;9.182;2022-08-25T00:24:06;100011.28;;;22.01;75.55
12594;BME280;6362;50.208;9.182;2022-08-25T00:26:36;100005.31;;;21.97;75.86
12594;BME280;6362;50.208;9.182;2022-08-25T00:29:02;100004.56;;;21.95;75.70
12594;BME280;6362;50.208;9.182;2022-08-25T00:31:28;100006.13;;;21.99;75.83
12594;BME280;6362;50.208;9.182;2022-08-25T00:33:54;100006.06;;;22.01;77.24
12594;BME280;6362;50.208;9.182;2022-08-25T00:36:19;99995.81;;;21.98;76.53
12594;BME280;6362;50.208;9.182;2022-08-25T00:38:46;100001.03;;;21.96;76.54
12594;BME280;6362;50.208;9.182;2022-08-25T00:41:15;100002.72;;;21.97;77.28
12594;BME280;6362;50.208;9.182;2022-08-25T00:46:14;99995.09;;;21.93;77.55
12594;BME280;6362;50.208;9.182;2022-08-25T00:48:43;99990.78;;;21.93;76.99
12594;BME280;6362;50.208;9.182;2022-08-25T00:51:13;99999.41;;;21.94;78.32
12594;BME280;6362;50.208;9.182;2022-08-25T00:53:42;99995.81;;;21.98;77.97
12594;BME280;6362;50.208;9.182;2022-08-25T00:56:08;99997.50;;;21.99;78.37
12594;BME280;6362;50.208;9.182;2022-08-25T00:58:35;99996.69;;;21.97;80.04
12594;BME280;6362;50.208;9.182;2022-08-25T01:01:01;99993.25;;;21.96;80.44
12594;BME280;6362;50.208;9.182;2022-08-25T01:03:28;99983.66;;;21.98;78.57
12594;BME280;6362;50.208;9.182;2022-08-25T01:05:55;99987.22;;;21.96;78.46
12594;BME280;6362;50.208;9.182;2022-08-25T01:08:23;99989.69;;;21.99;79.06
12594;BME280;6362;50.208;9.182;2022-08-25T01:10:50;99992.41;;;21.96;78.40
12594;BME280;6362;50.208;9.182;2022-08-25T01:13:21;99995.00;;;21.96;79.85
12594;BME280;6362;50.208;9.182;2022-08-25T01:15:49;99999.41;;;21.94;80.76
12594;BME280;6362;50.208;9.182;2022-08-25T01:18:17;99991.69;;;21.91;81.03
12594;BME280;6362;50.208;9.182;2022-08-25T01:20:47;99999.50;;;21.91;81.55
12594;BME280;6362;50.208;9.182;2022-08-25T01:23:13;99992.66;;;21.88;80.08
12594;BME280;6362;50.208;9.182;2022-08-25T01:28:10;99988.38;;;21.87;79.83
12594;BME280;6362;50.208;9.182;2022-08-25T01:30:36;99991.84;;;21.86;79.79
12594;BME280;6362;50.208;9.182;2022-08-25T01:33:04;99991.81;;;21.88;80.15
12594;BME280;6362;50.208;9.182;2022-08-25T01:35:32;99990.22;;;21.83;82.03
12594;BME280;6362;50.208;9.182;2022-08-25T01:38:00;99986.03;;;21.79;80.99
12594;BME280;6362;50.208;9.182;2022-08-25T01:40:26;99985.25;;;21.77;82.23
12594;BME280;6362;50.208;9.182;2022-08-25T01:42:57;99986.13;;;21.76;82.42
12594;BME280;6362;50.208;9.182;2022-08-25T01:45:26;99991.44;;;21.73;82.09
12594;BME280;6362;50.208;9.182;2022-08-25T01:47:51;99994.88;;;21.74;82.71
12594;BME280;6362;50.208;9.182;2022-08-25T01:50:17;99989.72;;;21.72;82.38
12594;BME280;6362;50.208;9.182;2022-08-25T01:55:15;99991.59;;;21.69;83.09
12594;BME280;6362;50.208;9.182;2022-08-25T01:57:40;99999.44;;;21.67;83.97
12594;BME280;6362;50.208;9.182;2022-08-25T02:00:07;100005.56;;;21.65;83.62
12594;BME280;6362;50.208;9.182;2022-08-25T02:02:33;100004.66;;;21.66;83.68
12594;BME280;6362;50.208;9.182;2022-08-25T02:04:58;100002.34;;;21.58;84.39
12594;BME280;6362;50.208;9.182;2022-08-25T02:07:24;100007.56;;;21.56;84.92
12594;BME280;6362;50.208;9.182;2022-08-25T02:09:49;100008.50;;;21.54;84.12
12594;BME280;6362;50.208;9.182;2022-08-25T02:12:15;100012.22;;;21.47;85.21
12594;BME280;6362;50.208;9.182;2022-08-25T02:14:40;100003.47;;;21.49;85.96
12594;BME280;6362;50.208;9.182;2022-08-25T02:17:06;100000.91;;;21.48;85.63
12594;BME280;6362;50.208;9.182;2022-08-25T02:19:31;100000.13;;;21.46;86.46
12594;BME280;6362;50.208;9.182;2022-08-25T02:21:58;99994.06;;;21.47;86.51
12594;BME280;6362;50.208;9.182;2022-08-25T02:24:23;100001.06;;;21.43;87.23
12594;BME280;6362;50.208;9.182;2022-08-25T02:26:49;99993.38;;;21.40;87.90
12594;BME280;6362;50.208;9.182;2022-08-25T02:29:15;99994.38;;;21.34;87.60
12594;BME280;6362;50.208;9.182;2022-08-25T02:31:41;99995.31;;;21.33;87.65
12594;BME280;6362;50.208;9.182;2022-08-25T02:34:08;99999.69;;;21.31;88.98
12594;BME280;6362;50.208;9.182;2022-08-25T02:36:36;99995.50;;;21.27;88.13
12594;BME280;6362;50.208;9.182;2022-08-25T02:39:03;99998.09;;;21.27;89.58
12594;BME280;6362;50.208;9.182;2022-08-25T02:41:29;99999.88;;;21.25;89.88
12594;BME280;6362;50.208;9.182;2022-08-25T02:43:55;99998.94;;;21.28;90.31
12594;BME280;6362;50.208;9.182;2022-08-25T02:46:22;99997.28;;;21.25;90.36
12594;BME280;6362;50.208;9.182;2022-08-25T02:48:49;99994.97;;;21.16;90.68
12594;BME280;6362;50.208;9.182;2022-08-25T02:51:16;99996.78;;;21.14;90.87
12594;BME280;6362;50.208;9.182;2022-08-25T02:53:42;99997.69;;;21.13;91.10
12594;BME280;6362;50.208;9.182;2022-08-25T02:56:11;99995.22;;;21.08;92.00
12594;BME280;6362;50.208;9.182;2022-08-25T02:58:38;99994.53;;;21.03;91.95
12594;BME280;6362;50.208;9.182;2022-08-25T03:01:05;99986.81;;;21.00;92.21
12594;BME280;6362;50.208;9.182;2022-08-25T03:03:31;99997.25;;;20.98;92.86
12594;BME280;6362;50.208;9.182;2022-08-25T03:05:57;99991.34;;;20.93;94.41
12594;BME280;6362;50.208;9.182;2022-08-25T03:08:23;99993.25;;;20.88;94.14
12594;BME280;6362;50.208;9.182;2022-08-25T03:10:49;99993.25;;;20.88;94.90
12594;BME280;6362;50.208;9.182;2022-08-25T03:13:15;99996.84;;;20.83;93.96
12594;BME280;6362;50.208;9.182;2022-08-25T03:15:41;99996.00;;;20.82;95.15
12594;BME280;6362;50.208;9.182;2022-08-25T03:18:07;99995.31;;;20.77;94.59
12594;BME280;6362;50.208;9.182;2022-08-25T03:20:33;99997.84;;;20.78;95.92
12594;BME280;6362;50.208;9.182;2022-08-25T03:23:01;99994.38;;;20.78;95.87
12594;BME280;6362;50.208;9.182;2022-08-25T03:25:27;99996.97;;;20.78;95.63
12594;BME280;6362;50.208;9.182;2022-08-25T03:28:12;99996.91;;;20.81;96.21
12594;BME280;6362;50.208;9.182;2022-08-25T03:30:37;99992.72;;;20.77;96.02
12594;BME280;6362;50.208;9.182;2022-08-25T03:33:03;99986.69;;;20.76;97.10
12594;BME280;6362;50.208;9.182;2022-08-25T03:35:28;99985.25;;;20.66;96.31
12594;BME280;6362;50.208;9.182;2022-08-25T03:37:55;99980.16;;;20.63;96.45
12594;BME280;6362;50.208;9.182;2022-08-25T03:40:21;99980.16;;;20.63;96.83
12594;BME280;6362;50.208;9.182;2022-08-25T03:42:48;99981.97;;;20.59;96.82
12594;BME280;6362;50.208;9.182;2022-08-25T03:45:15;99980.19;;;20.62;98.03
12594;BME280;6362;50.208;9.182;2022-08-25T03:47:45;99982.03;;;20.58;97.64
12594;BME280;6362;50.208;9.182;2022-08-25T03:50:11;99981.25;;;20.54;98.23
12594;BME280;6362;50.208;9.182;2022-08-25T03:52:36;99981.28;;;20.53;97.23
12594;BME280;6362;50.208;9.182;2022-08-25T03:55:07;99987.50;;;20.47;99.93
12594;BME280;6362;50.208;9.182;2022-08-25T03:57:34;99988.25;;;20.51;100.00
12594;BME280;6362;50.208;9.182;2022-08-25T03:59:59;99981.63;;;20.41;100.00
12594;BME280;6362;50.208;9.182;2022-08-25T04:02:25;99985.03;;;20.43;100.00
12594;BME280;6362;50.208;9.182;2022-08-25T04:04:50;99978.97;;;20.42;100.00
12594;BME280;6362;50.208;9.182;2022-08-25T04:07:16;99988.47;;;20.43;100.00
12594;BME280;6362;50.208;9.182;2022-08-25T04:09:42;99989.41;;;20.41;100.00
12594;BME280;6362;50.208;9.182;2022-08-25T04:12:07;99981.56;;;20.42;100.00
12594;BME280;6362;50.208;9.182;2022-08-25T04:14:34;99984.38;;;20.34;100.00
12594;BME280;6362;50.208;9.182;2022-08-25T04:16:59;99992.06;;;20.37;100.00
12594;BME280;6362;50.208;9.182;2022-08-25T04:19:28;99983.31;;;20.42;100.00
12594;BME280;6362;50.208;9.182;2022-08-25T04:21:53;99976.53;;;20.37;100.00
12594;BME280;6362;50.208;9.182;2022-08-25T04:24:19;99971.34;;;20.37;100.00
12594;BME280;6362;50.208;9.182;2022-08-25T04:26:48;99973.75;;;20.44;100.00
12594;BME280;6362;50.208;9.182;2022-08-25T04:29:17;99965.94;;;20.47;100.00
12594;BME280;6362;50.208;9.182;2022-08-25T04:31:44;99955.63;;;20.44;100.00
12594;BME280;6362;50.208;9.182;2022-08-25T04:34:17;99956.47;;;20.44;100.00
12594;BME280;6362;50.208;9.182;2022-08-25T04:36:44;99950.38;;;20.47;100.00
12594;BME280;6362;50.208;9.182;2022-08-25T04:39:10;99940.94;;;20.44;100.00
12594;BME280;6362;50.208;9.182;2022-08-25T04:41:36;99948.03;;;20.37;100.00
12594;BME280;6362;50.208;9.182;2022-08-25T04:44:01;99947.19;;;20.37;100.00
12594;BME280;6362;50.208;9.182;2022-08-25T04:46:30;99948.78;;;20.41;100.00
12594;BME280;6362;50.208;9.182;2022-08-25T04:48:58;99956.56;;;20.41;100.00
12594;BME280;6362;50.208;9.182;2022-08-25T04:51:29;99951.63;;;20.33;100.00
12594;BME280;6362;50.208;9.182;2022-08-25T04:53:58;99954.13;;;20.36;100.00
12594;BME280;6362;50.208;9.182;2022-08-25T04:56:24;99949.88;;;20.34;100.00
12594;BME280;6362;50.208;9.182;2022-08-25T04:58:51;99963.03;;;20.26;100.00
12594;BME280;6362;50.208;9.182;2022-08-25T05:01:19;99957.00;;;20.26;100.00
12594;BME280;6362;50.208;9.182;2022-08-25T05:03:46;99959.59;;;20.26;100.00
12594;BME280;6362;50.208;9.182;2022-08-25T05:06:13;99958.88;;;20.21;100.00
12594;BME280;6362;50.208;9.182;2022-08-25T05:08:39;99967.59;;;20.18;100.00
12594;BME280;6362;50.208;9.182;2022-08-25T05:11:09;99978.78;;;20.18;100.00
12594;BME280;6362;50.208;9.182;2022-08-25T05:13:37;99977.25;;;20.11;100.00
12594;BME280;6362;50.208;9.182;2022-08-25T05:16:03;99991.53;;;19.93;100.00
12594;BME280;6362;50.208;9.182;2022-08-25T05:18:30;99994.28;;;19.87;100.00
12594;BME280;6362;50.208;9.182;2022-08-25T05:21:01;99989.63;;;19.66;100.00
12594;BME280;6362;50.208;9.182;2022-08-25T05:23:27;99985.66;;;19.52;100.00
12594;BME280;6362;50.208;9.182;2022-08-25T05:25:52;99991.88;;;19.44;100.00
12594;BME280;6362;50.208;9.182;2022-08-25T05:28:18;99995.53;;;19.37;100.00
12594;BME280;6362;50.208;9.182;2022-08-25T05:30:44;99981.00;;;19.29;100.00
12594;BME280;6362;50.208;9.182;2022-08-25T05:33:11;99977.66;;;19.26;100.00
12594;BME280;6362;50.208;9.182;2022-08-25T05:35:37;99977.72;;;19.23;100.00
12594;BME280;6362;50.208;9.182;2022-08-25T05:38:03;99974.34;;;19.21;100.00
12594;BME280;6362;50.208;9.182;2022-08-25T05:40:30;99981.09;;;19.26;100.00
12594;BME280;6362;50.208;9.182;2022-08-25T05:42:56;99981.94;;;19.27;100.00
12594;BME280;6362;50.208;9.182;2022-08-25T05:45:22;99976.72;;;19.30;100.00
12594;BME280;6362;50.208;9.182;2022-08-25T05:47:47;99980.91;;;19.34;100.00
12594;BME280;6362;50.208;9.182;2022-08-25T05:50:13;99982.38;;;19.44;100.00
12594;BME280;6362;50.208;9.182;2022-08-25T05:52:39;99988.28;;;19.49;100.00
12594;BME280;6362;50.208;9.182;2022-08-25T05:55:05;99986.06;;;19.71;100.00
12594;BME280;6362;50.208;9.182;2022-08-25T05:57:32;99983.91;;;19.89;100.00
12594;BME280;6362;50.208;9.182;2022-08-25T05:59:57;99980.09;;;20.02;100.00
12594;BME280;6362;50.208;9.182;2022-08-25T06:02:23;99970.19;;;20.18;100.00
12594;BME280;6362;50.208;9.182;2022-08-25T06:05:17;99966.47;;;20.27;100.00
12594;BME280;6362;50.208;9.182;2022-08-25T06:07:44;99957.47;;;20.40;100.00
12594;BME280;6362;50.208;9.182;2022-08-25T06:10:11;99964.03;;;20.52;100.00
12594;BME280;6362;50.208;9.182;2022-08-25T06:12:39;99959.44;;;20.63;100.00
12594;BME280;6362;50.208;9.182;2022-08-25T06:15:05;99952.91;;;20.78;100.00
12594;BME280;6362;50.208;9.182;2022-08-25T06:17:31;99959.34;;;20.94;100.00
12594;BME280;6362;50.208;9.182;2022-08-25T06:19:56;99960.72;;;21.06;100.00
12594;BME280;6362;50.208;9.182;2022-08-25T06:22:22;99951.03;;;21.11;100.00
12594;BME280;6362;50.208;9.182;2022-08-25T06:24:49;99955.91;;;21.20;100.00
12594;BME280;6362;50.208;9.182;2022-08-25T06:27:16;99946.13;;;21.30;100.00
12594;BME280;6362;50.208;9.182;2022-08-25T06:29:42;99947.53;;;21.40;100.00
12594;BME280;6362;50.208;9.182;2022-08-25T06:32:08;99946.06;;;21.58;99.84
12594;BME280;6362;50.208;9.182;2022-08-25T06:34:33;99940.41;;;21.72;98.23
12594;BME280;6362;50.208;9.182;2022-08-25T06:36:59;99944.31;;;21.84;98.41
12594;BME280;6362;50.208;9.182;2022-08-25T06:39:24;99941.25;;;21.98;96.50
12594;BME280;6362;50.208;9.182;2022-08-25T06:41:54;99933.94;;;22.09;95.26
12594;BME280;6362;50.208;9.182;2022-08-25T06:44:21;99925.50;;;22.28;93.62
12594;BME280;6362;50.208;9.182;2022-08-25T06:46:47;99930.47;;;22.34;92.40
12594;BME280;6362;50.208;9.182;2022-08-25T06:49:13;99931.19;;;22.37;92.88
12594;BME280;6362;50.208;9.182;2022-08-25T06:51:38;99931.47;;;22.53;90.97
12594;BME280;6362;50.208;9.182;2022-08-25T06:54:07;99924.22;;;22.61;90.79
12594;BME280;6362;50.208;9.182;2022-08-25T06:56:35;99937.66;;;22.73;90.26
12594;BME280;6362;50.208;9.182;2022-08-25T06:59:01;99934.47;;;22.88;89.28
12594;BME280;6362;50.208;9.182;2022-08-25T07:01:27;99935.78;;;22.98;88.22
12594;BME280;6362;50.208;9.182;2022-08-25T07:03:54;99933.19;;;22.98;88.51
12594;BME280;6362;50.208;9.182;2022-08-25T07:06:25;99932.75;;;23.11;88.21
12594;BME280;6362;50.208;9.182;2022-08-25T07:08:51;99936.34;;;23.28;87.07
12594;BME280;6362;50.208;9.182;2022-08-25T07:11:17;99935.00;;;23.40;86.06
12594;BME280;6362;50.208;9.182;2022-08-25T07:13:46;99934.34;;;23.56;84.54
12594;BME280;6362;50.208;9.182;2022-08-25T07:16:13;99939.81;;;23.70;85.26
12594;BME280;6362;50.208;9.182;2022-08-25T07:18:42;99939.81;;;23.90;82.76
12594;BME280;6362;50.208;9.182;2022-08-25T07:21:07;99942.03;;;24.00;82.60
12594;BME280;6362;50.208;9.182;2022-08-25T07:23:33;99935.16;;;24.18;81.46
12594;BME280;6362;50.208;9.182;2022-08-25T07:26:20;99937.06;;;24.33;80.78
12594;BME280;6362;50.208;9.182;2022-08-25T07:28:46;99932.09;;;24.47;80.29
12594;BME280;6362;50.208;9.182;2022-08-25T07:31:12;99936.81;;;24.58;79.89
12594;BME280;6362;50.208;9.182;2022-08-25T07:33:38;99932.53;;;24.57;80.00
12594;BME280;6362;50.208;9.182;2022-08-25T07:36:23;99932.66;;;24.73;78.67
12594;BME280;6362;50.208;9.182;2022-08-25T07:38:49;99926.00;;;24.85;77.61
12594;BME280;6362;50.208;9.182;2022-08-25T07:41:15;99922.50;;;25.03;76.50
12594;BME280;6362;50.208;9.182;2022-08-25T07:43:40;99917.59;;;24.97;76.97
12594;BME280;6362;50.208;9.182;2022-08-25T07:46:06;99929.88;;;25.12;76.74
12594;BME280;6362;50.208;9.182;2022-08-25T07:48:32;99931.09;;;25.24;77.34
12594;BME280;6362;50.208;9.182;2022-08-25T07:50:57;99927.94;;;25.35;75.91
12594;BME280;6362;50.208;9.182;2022-08-25T07:53:23;99933.94;;;25.54;75.02
12594;BME280;6362;50.208;9.182;2022-08-25T07:55:49;99918.31;;;25.70;74.80
12594;BME280;6362;50.208;9.182;2022-08-25T07:58:15;99924.69;;;25.82;73.46
12594;BME280;6362;50.208;9.182;2022-08-25T08:00:40;99926.38;;;25.83;71.80
12594;BME280;6362;50.208;9.182;2022-08-25T08:03:07;99927.38;;;25.98;71.63
12594;BME280;6362;50.208;9.182;2022-08-25T08:05:34;99926.28;;;26.02;71.23
12594;BME280;6362;50.208;9.182;2022-08-25T08:08:01;99927.41;;;26.14;71.61
12594;BME280;6362;50.208;9.182;2022-08-25T08:10:26;99924.59;;;26.34;71.16
12594;BME280;6362;50.208;9.182;2022-08-25T08:12:52;99925.78;;;26.61;69.36
12594;BME280;6362;50.208;9.182;2022-08-25T08:15:18;99923.75;;;26.82;68.93
12594;BME280;6362;50.208;9.182;2022-08-25T08:17:44;99918.94;;;26.90;67.58
12594;BME280;6362;50.208;9.182;2022-08-25T08:20:10;99921.44;;;27.07;65.31
12594;BME280;6362;50.208;9.182;2022-08-25T08:22:38;99930.69;;;27.29;65.09
12594;BME280;6362;50.208;9.182;2022-08-25T08:25:04;99917.94;;;27.53;63.29
12594;BME280;6362;50.208;9.182;2022-08-25T08:27:33;99908.00;;;27.44;62.64
12594;BME280;6362;50.208;9.182;2022-08-25T08:29:59;99909.63;;;27.60;61.87
12594;BME280;6362;50.208;9.182;2022-08-25T08:32:25;99921.53;;;27.80;62.35
12594;BME280;6362;50.208;9.182;2022-08-25T08:34:51;99909.28;;;27.81;60.01
12594;BME280;6362;50.208;9.182;2022-08-25T08:37:17;99913.94;;;27.76;61.11
12594;BME280;6362;50.208;9.182;2022-08-25T08:39:42;99920.09;;;27.60;60.70
12594;BME280;6362;50.208;9.182;2022-08-25T08:55:57;99905.31;;;28.87;56.75
12594;BME280;6362;50.208;9.182;2022-08-25T09:01:07;99896.19;;;29.33;53.78
12594;BME280;6362;50.208;9.182;2022-08-25T09:03:39;99894.94;;;29.51;53.88
12594;BME280;6362;50.208;9.182;2022-08-25T09:06:09;99890.44;;;29.79;51.88
12594;BME280;6362;50.208;9.182;2022-08-25T09:08:36;99885.91;;;29.94;50.38
12594;BME280;6362;50.208;9.182;2022-08-25T09:11:12;99890.25;;;29.82;49.80
12594;BME280;6362;50.208;9.182;2022-08-25T09:14:34;99884.16;;;29.81;48.97
12594;BME280;6362;50.208;9.182;2022-08-25T09:16:51;99889.94;;;29.74;47.50
12594;BME280;6362;50.208;9.182;2022-08-25T09:25:17;99873.31;;;29.47;49.50
12594;BME280;6362;50.208;9.182;2022-08-25T09:28:38;99872.34;;;29.61;47.63
12594;BME280;6362;50.208;9.182;2022-08-25T09:31:29;99877.41;;;29.64;48.57
12594;BME280;6362;50.208;9.182;2022-08-25T09:33:58;99879.31;;;29.75;48.43
12594;BME280;6362;50.208;9.182;2022-08-25T09:36:24;99864.47;;;29.87;46.59
12594;BME280;6362;50.208;9.182;2022-08-25T09:38:51;99861.09;;;29.98;46.24
12594;BME280;6362;50.208;9.182;2022-08-25T09:44:29;99873.09;;;29.51;47.50
12594;BME280;6362;50.208;9.182;2022-08-25T09:47:04;99870.34;;;29.14;48.11
12594;BME280;6362;50.208;9.182;2022-08-25T09:49:43;99860.47;;;29.30;48.66
12594;BME280;6362;50.208;9.182;2022-08-25T09:52:23;99864.03;;;29.29;48.29
12594;BME280;6362;50.208;9.182;2022-08-25T09:54:52;99857.19;;;29.65;47.00
12594;BME280;6362;50.208;9.182;2022-08-25T09:57:45;99850.69;;;29.45;47.41
12594;BME280;6362;50.208;9.182;2022-08-25T10:03:10;99841.47;;;28.99;48.71
12594;BME280;6362;50.208;9.182;2022-08-25T10:05:47;99822.63;;;29.58;47.52
12594;BME280;6362;50.208;9.182;2022-08-25T10:08:26;99830.28;;;30.37;44.68
12594;BME280;6362;50.208;9.182;2022-08-25T10:10:56;99818.44;;;30.66;43.65
12594;BME280;6362;50.208;9.182;2022-08-25T10:13:36;99810.22;;;30.10;43.97
12594;BME280;6362;50.208;9.182;2022-08-25T10:16:12;99805.47;;;29.78;45.08
12594;BME280;6362;50.208;9.182;2022-08-25T10:18:44;99785.97;;;29.31;46.11
12594;BME280;6362;50.208;9.182;2022-08-25T10:21:15;99803.78;;;29.00;47.09
12594;BME280;6362;50.208;9.182;2022-08-25T10:23:52;99799.50;;;29.38;46.86
12594;BME280;6362;50.208;9.182;2022-08-25T10:26:38;99797.38;;;30.18;46.01
12594;BME280;6362;50.208;9.182;2022-08-25T10:31:58;99791.44;;;31.22;41.74
12594;BME280;6362;50.208;9.182;2022-08-25T10:40:24;99790.41;;;32.36;37.86
12594;BME280;6362;50.208;9.182;2022-08-25T10:46:36;99782.81;;;32.43;37.26
12594;BME280;6362;50.208;9.182;2022-08-25T10:49:26;99780.59;;;32.59;35.87
12594;BME280;6362;50.208;9.182;2022-08-25T10:52:07;99779.44;;;32.73;36.65
12594;BME280;6362;50.208;9.182;2022-08-25T10:55:00;99770.25;;;33.09;35.65
12594;BME280;6362;50.208;9.182;2022-08-25T10:57:40;99775.78;;;32.64;37.18
12594;BME280;6362;50.208;9.182;2022-08-25T11:10:57;99762.47;;;31.33;41.14
12594;BME280;6362;50.208;9.182;2022-08-25T11:16:12;99766.22;;;32.20;38.71
12594;BME280;6362;50.208;9.182;2022-08-25T11:19:12;99762.47;;;32.22;38.60
12594;BME280;6362;50.208;9.182;2022-08-25T11:30:16;99743.09;;;33.28;34.71
12594;BME280;6362;50.208;9.182;2022-08-25T11:32:48;99734.97;;;33.20;33.77
12594;BME280;6362;50.208;9.182;2022-08-25T11:35:18;99732.81;;;33.35;33.47
12594;BME280;6362;50.208;9.182;2022-08-25T11:51:53;99720.91;;;34.10;33.78
12594;BME280;6362;50.208;9.182;2022-08-25T12:02:46;99726.47;;;31.89;39.24
12594;BME280;6362;50.208;9.182;2022-08-25T12:15:22;99720.53;;;31.64;39.29
12594;BME280;6362;50.208;9.182;2022-08-25T12:23:29;99705.91;;;30.92;39.90
12594;BME280;6362;50.208;9.182;2022-08-25T12:25:58;99719.44;;;30.88;41.10
12594;BME280;6362;50.208;9.182;2022-08-25T12:31:22;99705.03;;;30.81;41.04
12594;BME280;6362;50.208;9.182;2022-08-25T12:34:01;99706.59;;;30.83;41.75
12594;BME280;6362;50.208;9.182;2022-08-25T12:36:32;99711.19;;;30.92;41.11
12594;BME280;6362;50.208;9.182;2022-08-25T12:39:20;99706.78;;;31.49;40.66
12594;BME280;6362;50.208;9.182;2022-08-25T12:42:20;99710.91;;;31.74;39.33
12594;BME280;6362;50.208;9.182;2022-08-25T12:47:34;99705.22;;;32.02;37.62
12594;BME280;6362;50.208;9.182;2022-08-25T12:50:37;99715.19;;;32.30;36.52
12594;BME280;6362;50.208;9.182;2022-08-25T12:53:10;99707.47;;;32.39;35.40
12594;BME280;6362;50.208;9.182;2022-08-25T12:55:39;99706.94;;;32.24;36.68
12594;BME280;6362;50.208;9.182;2022-08-25T12:58:06;99705.72;;;32.28;35.59
12594;BME280;6362;50.208;9.182;2022-08-25T13:00:48;99705.22;;;31.90;36.22
12594;BME280;6362;50.208;9.182;2022-08-25T13:11:40;99694.22;;;32.50;35.63
12594;BME280;6362;50.208;9.182;2022-08-25T13:14:17;99692.66;;;33.10;33.63
12594;BME280;6362;50.208;9.182;2022-08-25T13:16:59;99690.34;;;34.06;31.83
12594;BME280;6362;50.208;9.182;2022-08-25T13:19:28;99681.03;;;34.02;31.49
12594;BME280;6362;50.208;9.182;2022-08-25T13:21:56;99684.75;;;33.70;32.43
12594;BME280;6362;50.208;9.182;2022-08-25T13:24:33;99684.00;;;32.56;32.87
12594;BME280;6362;50.208;9.182;2022-08-25T13:27:03;99685.00;;;32.23;34.25
12594;BME280;6362;50.208;9.182;2022-08-25T13:29:34;99675.31;;;32.12;35.69
12594;BME280;6362;50.208;9.182;2022-08-25T13:32:04;99676.88;;;32.15;36.01
12594;BME280;6362;50.208;9.182;2022-08-25T13:34:40;99664.53;;;32.36;36.58
12594;BME280;6362;50.208;9.182;2022-08-25T13:37:09;99659.81;;;32.82;36.02
12594;BME280;6362;50.208;9.182;2022-08-25T13:42:45;99664.72;;;33.77;34.82
12594;BME280;6362;50.208;9.182;2022-08-25T13:45:15;99665.28;;;33.91;34.84
12594;BME280;6362;50.208;9.182;2022-08-25T13:47:42;99672.13;;;34.22;34.17
12594;BME280;6362;50.208;9.182;2022-08-25T13:52:48;99668.88;;;34.48;33.16
12594;BME280;6362;50.208;9.182;2022-08-25T13:55:27;99660.97;;;34.09;33.09
12594;BME280;6362;50.208;9.182;2022-08-25T13:57:59;99662.63;;;33.91;33.75
12594;BME280;6362;50.208;9.182;2022-08-25T14:02:54;99660.06;;;33.50;34.71
12594;BME280;6362;50.208;9.182;2022-08-25T14:05:37;99658.28;;;33.51;34.42
12594;BME280;6362;50.208;9.182;2022-08-25T14:08:07;99657.59;;;33.58;34.34
12594;BME280;6362;50.208;9.182;2022-08-25T14:10:41;99658.19;;;34.01;33.51
12594;BME280;6362;50.208;9.182;2022-08-25T14:13:12;99639.97;;;34.27;32.82
12594;BME280;6362;50.208;9.182;2022-08-25T14:15:38;99640.09;;;34.82;31.00
12594;BME280;6362;50.208;9.182;2022-08-25T14:18:30;99636.75;;;35.08;30.09
12594;BME280;6362;50.208;9.182;2022-08-25T14:20:57;99638.06;;;35.32;30.36
12594;BME280;6362;50.208;9.182;2022-08-25T14:23:25;99639.78;;;34.95;29.49
12594;BME280;6362;50.208;9.182;2022-08-25T14:25:56;99639.84;;;35.03;29.50
12594;BME280;6362;50.208;9.182;2022-08-25T14:28:24;99640.81;;;35.12;28.30
12594;BME280;6362;50.208;9.182;2022-08-25T14:30:54;99632.41;;;35.17;27.68
12594;BME280;6362;50.208;9.182;2022-08-25T14:33:26;99635.78;;;35.37;26.67
12594;BME280;6362;50.208;9.182;2022-08-25T14:35:53;99628.34;;;35.68;27.15
12594;BME280;6362;50.208;9.182;2022-08-25T14:38:19;99630.22;;;35.76;26.57
12594;BME280;6362;50.208;9.182;2022-08-25T14:40:46;99621.38;;;35.85;26.36
12594;BME280;6362;50.208;9.182;2022-08-25T14:43:12;99615.22;;;35.67;27.29
12594;BME280;6362;50.208;9.182;2022-08-25T14:45:40;99618.59;;;35.41;27.93
12594;BME280;6362;50.208;9.182;2022-08-25T14:48:08;99622.06;;;35.41;28.10
12594;BME280;6362;50.208;9.182;2022-08-25T14:50:34;99627.38;;;35.69;27.90
12594;BME280;6362;50.208;9.182;2022-08-25T14:53:00;99613.56;;;35.65;28.46
12594;BME280;6362;50.208;9.182;2022-08-25T14:55:26;99608.81;;;35.41;27.99
12594;BME280;6362;50.208;9.182;2022-08-25T14:57:52;99614.34;;;35.02;28.04
12594;BME280;6362;50.208;9.182;2022-08-25T15:00:17;99611.69;;;35.48;27.77
12594;BME280;6362;50.208;9.182;2022-08-25T15:02:44;99603.72;;;35.12;28.55
12594;BME280;6362;50.208;9.182;2022-08-25T15:05:15;99601.38;;;34.72;29.48
12594;BME280;6362;50.208;9.182;2022-08-25T15:07:43;99600.25;;;34.17;30.13
12594;BME280;6362;50.208;9.182;2022-08-25T15:10:27;99594.38;;;34.04;29.97
12594;BME280;6362;50.208;9.182;2022-08-25T15:12:53;99594.38;;;34.04;29.65
12594;BME280;6362;50.208;9.182;2022-08-25T15:15:18;99582.13;;;34.32;29.90
12594;BME280;6362;50.208;9.182;2022-08-25T15:17:45;99587.56;;;34.21;30.44
12594;BME280;6362;50.208;9.182;2022-08-25T15:20:12;99583.28;;;33.81;31.02
12594;BME280;6362;50.208;9.182;2022-08-25T15:22:38;99585.44;;;33.37;30.85
12594;BME280;6362;50.208;9.182;2022-08-25T15:25:04;99590.00;;;32.75;32.10
12594;BME280;6362;50.208;9.182;2022-08-25T15:27:30;99585.16;;;32.49;32.77
12594;BME280;6362;50.208;9.182;2022-08-25T15:29:56;99575.69;;;32.26;33.23